Time;durP1;ratioP1;P1;durP2;ratioP2;P2;SDS_P1;SDS_P2;PMS_P1;PMS_P2;Temp;Humidity;BMP_temperature;BMP_pressure;BME280_temperature;BME280_humidity;BME280_pressure;Samples;Min_cycle;Max_cycle;Signal;HPM_P1;HPM_P2
2024/01/28 00:00:46;;;;;;;18.52;9.57;;;-0.80;99.90;;;;;;5058418;28;20208;-68
2024/01/28 00:03:15;;;;;;;16.90;7.72;;;-0.90;99.90;;;;;;5060797;28;20217;-68
2024/01/28 00:05:43;;;;;;;18.08;8.63;;;-0.90;99.90;;;;;;5062620;28;20214;-68
2024/01/28 00:08:12;;;;;;;24.77;10.13;;;-1.00;99.90;;;;;;5058137;28;20223;-67
2024/01/28 00:10:41;;;;;;;20.70;8.55;;;-1.10;99.90;;;;;;5061772;28;21086;-68
2024/01/28 00:13:09;;;;;;;16.33;9.02;;;-1.10;99.90;;;;;;5062058;28;20205;-68
2024/01/28 00:15:37;;;;;;;16.45;8.77;;;-1.00;99.90;;;;;;5062403;28;20665;-69
2024/01/28 00:18:06;;;;;;;18.13;9.40;;;-1.00;99.90;;;;;;5062232;28;20281;-68
2024/01/28 00:20:34;;;;;;;20.80;9.23;;;-0.90;99.90;;;;;;5060118;28;20282;-68
2024/01/28 00:23:03;;;;;;;21.80;9.23;;;-0.80;99.90;;;;;;5059731;28;20204;-68
2024/01/28 00:25:32;;;;;;;19.05;8.20;;;-1.00;99.90;;;;;;5059851;28;20274;-68
2024/01/28 00:28:00;;;;;;;19.15;8.40;;;-1.10;99.90;;;;;;5058270;28;20221;-69
2024/01/28 00:30:32;;;;;;;16.63;7.80;;;-1.20;99.90;;;;;;5057505;28;20977;-69
2024/01/28 00:33:00;;;;;;;16.00;8.27;;;-1.20;99.90;;;;;;5058497;28;20293;-68
2024/01/28 00:35:28;;;;;;;17.15;8.13;;;-1.20;99.90;;;;;;5064226;28;20224;-68
2024/01/28 00:37:57;;;;;;;20.48;8.93;;;-1.30;99.90;;;;;;5064659;28;20228;-68
2024/01/28 00:40:25;;;;;;;16.73;8.63;;;-1.20;99.90;;;;;;5063410;28;20238;-68
2024/01/28 00:42:55;;;;;;;18.98;8.93;;;-1.30;99.90;;;;;;5069358;28;20212;-68
2024/01/28 00:45:23;;;;;;;17.48;8.55;;;-1.30;99.90;;;;;;5069144;28;20222;-68
2024/01/28 00:47:51;;;;;;;18.77;8.50;;;-1.30;99.90;;;;;;5069627;28;20307;-68
2024/01/28 00:50:19;;;;;;;16.17;8.07;;;-1.50;99.90;;;;;;5068231;28;20215;-67
2024/01/28 00:52:49;;;;;;;16.75;8.32;;;-1.60;99.90;;;;;;5067816;28;20295;-67
2024/01/28 00:55:17;;;;;;;22.35;8.98;;;-1.60;99.90;;;;;;5068540;28;20204;-68
2024/01/28 00:57:45;;;;;;;16.75;8.82;;;-1.40;99.90;;;;;;5065910;28;20315;-68
2024/01/28 01:00:15;;;;;;;19.33;8.38;;;-1.40;99.90;;;;;;5067618;28;20220;-66
2024/01/28 01:02:43;;;;;;;19.50;9.40;;;-1.30;99.90;;;;;;5067743;28;20217;-67
2024/01/28 01:05:11;;;;;;;18.35;8.00;;;-1.30;99.90;;;;;;5068379;28;20232;-67
2024/01/28 01:07:40;;;;;;;18.73;9.43;;;-1.20;99.90;;;;;;5064879;28;20259;-67
2024/01/28 01:10:09;;;;;;;20.90;10.80;;;-1.10;99.90;;;;;;5068744;28;20208;-67
2024/01/28 01:12:37;;;;;;;25.70;11.80;;;-1.10;99.90;;;;;;5067863;28;20273;-68
2024/01/28 01:15:07;;;;;;;23.67;11.75;;;-1.20;99.90;;;;;;5068832;28;20215;-67
2024/01/28 01:17:36;;;;;;;23.05;10.57;;;-1.40;99.90;;;;;;5067989;28;20236;-67
2024/01/28 01:20:06;;;;;;;25.40;11.70;;;-1.30;99.90;;;;;;5068262;28;20303;-68
2024/01/28 01:22:34;;;;;;;21.05;10.45;;;-1.30;99.90;;;;;;5067311;28;20212;-67
2024/01/28 01:25:02;;;;;;;18.63;11.25;;;-1.20;99.90;;;;;;5067703;28;20218;-67
2024/01/28 01:27:29;;;;;;;26.85;12.30;;;-1.30;99.90;;;;;;5068078;28;20204;-67
2024/01/28 01:29:57;;;;;;;20.98;10.70;;;-1.40;99.90;;;;;;5059428;28;20295;-68
2024/01/28 01:32:25;;;;;;;23.95;10.73;;;-1.40;99.90;;;;;;5066544;28;20719;-67
2024/01/28 01:34:54;;;;;;;23.50;11.52;;;-1.50;99.90;;;;;;5067559;28;20258;-66
2024/01/28 01:37:22;;;;;;;21.52;10.77;;;-1.50;99.90;;;;;;5067850;28;20256;-69
2024/01/28 01:39:50;;;;;;;20.75;10.43;;;-1.40;99.90;;;;;;5068147;28;20664;-67
2024/01/28 01:42:18;;;;;;;21.42;10.73;;;-1.30;99.90;;;;;;5066107;28;20217;-67
2024/01/28 01:44:46;;;;;;;23.35;10.15;;;-1.40;99.90;;;;;;5066756;28;20232;-66
2024/01/28 01:47:14;;;;;;;25.13;11.95;;;-1.50;99.90;;;;;;5066674;28;20296;-67
2024/01/28 01:49:43;;;;;;;22.55;10.57;;;-1.50;99.90;;;;;;5066814;28;20235;-67
2024/01/28 01:52:16;;;;;;;22.77;11.85;;;-1.70;99.90;;;;;;5064866;28;20715;-67
2024/01/28 01:54:44;;;;;;;22.58;12.00;;;-1.70;99.90;;;;;;5068722;28;20307;-68
2024/01/28 01:57:13;;;;;;;23.30;11.90;;;-1.70;99.90;;;;;;5067797;28;20256;-67
2024/01/28 01:59:42;;;;;;;24.80;10.98;;;-1.60;99.90;;;;;;5068034;28;20215;-67
2024/01/28 02:02:11;;;;;;;21.95;11.32;;;-1.60;99.90;;;;;;5065600;28;21354;-66
2024/01/28 02:04:39;;;;;;;23.58;11.35;;;-1.60;99.90;;;;;;5064488;28;20299;-66
2024/01/28 02:07:07;;;;;;;26.10;11.43;;;-1.60;99.90;;;;;;5061776;28;20235;-69
2024/01/28 02:09:37;;;;;;;20.00;10.93;;;-1.60;99.90;;;;;;5067864;28;20256;-69
2024/01/28 02:12:06;;;;;;;22.30;11.02;;;-1.60;99.90;;;;;;5066237;28;20212;-68
2024/01/28 02:14:34;;;;;;;22.65;9.45;;;-1.60;99.90;;;;;;5067346;28;20273;-68
2024/01/28 02:17:02;;;;;;;22.35;11.55;;;-1.60;99.90;;;;;;5067657;28;20208;-68
2024/01/28 02:19:30;;;;;;;22.73;9.30;;;-1.60;99.90;;;;;;5067460;28;20322;-68
2024/01/28 02:21:58;;;;;;;17.92;9.25;;;-1.50;99.90;;;;;;5056757;28;20220;-68
2024/01/28 02:24:27;;;;;;;26.35;8.55;;;-1.50;99.90;;;;;;5066749;28;20213;-68
2024/01/28 02:26:55;;;;;;;19.45;8.70;;;-1.60;99.90;;;;;;5067024;28;20201;-68
2024/01/28 02:29:23;;;;;;;18.02;8.68;;;-1.60;99.90;;;;;;5067150;28;20221;-68
2024/01/28 02:31:51;;;;;;;18.05;8.90;;;-1.60;99.90;;;;;;5066505;28;20208;-68
2024/01/28 02:34:19;;;;;;;17.58;8.98;;;-1.70;99.90;;;;;;5067875;28;20206;-69
2024/01/28 02:36:47;;;;;;;21.25;8.82;;;-1.60;99.90;;;;;;5068188;28;20291;-68
2024/01/28 02:39:15;;;;;;;15.98;7.63;;;-1.70;99.90;;;;;;5068358;28;20229;-69
2024/01/28 02:41:44;;;;;;;18.40;10.52;;;-1.60;99.90;;;;;;5067221;28;20204;-68
2024/01/28 02:44:12;;;;;;;20.23;10.55;;;-1.70;99.90;;;;;;5068151;28;20201;-69
2024/01/28 02:46:40;;;;;;;20.25;9.55;;;-1.80;99.90;;;;;;5068446;28;20305;-68
2024/01/28 02:49:08;;;;;;;15.50;7.72;;;-1.80;99.90;;;;;;5068156;28;20216;-69
2024/01/28 02:51:36;;;;;;;18.13;8.70;;;-1.70;99.90;;;;;;5065945;28;20694;-68
2024/01/28 02:54:04;;;;;;;19.48;8.45;;;-1.80;99.90;;;;;;5066097;28;20200;-68
2024/01/28 02:56:32;;;;;;;21.95;8.60;;;-1.80;99.90;;;;;;5067818;28;20204;-68
2024/01/28 02:59:03;;;;;;;16.20;8.05;;;-1.80;99.90;;;;;;5067577;28;20241;-68
2024/01/28 03:01:31;;;;;;;19.58;8.18;;;-1.90;99.90;;;;;;5067058;28;20231;-68
2024/01/28 03:03:59;;;;;;;18.65;8.30;;;-1.90;99.90;;;;;;5067037;28;20812;-68
2024/01/28 03:06:28;;;;;;;19.38;8.45;;;-1.80;99.90;;;;;;5067569;28;20230;-69
2024/01/28 03:08:57;;;;;;;18.85;8.05;;;-1.80;99.90;;;;;;5059394;28;20223;-68
2024/01/28 03:11:25;;;;;;;18.42;8.73;;;-1.80;99.90;;;;;;5066138;28;20783;-69
2024/01/28 03:13:52;;;;;;;21.00;7.95;;;-1.80;99.90;;;;;;5067396;28;20229;-69
2024/01/28 03:16:22;;;;;;;23.55;9.93;;;-1.80;99.90;;;;;;5067578;28;20633;-69
2024/01/28 03:18:50;;;;;;;18.83;9.18;;;-1.80;99.90;;;;;;5067327;28;20228;-68
2024/01/28 03:21:18;;;;;;;21.25;9.75;;;-1.90;99.90;;;;;;5066796;28;20726;-69
2024/01/28 03:23:47;;;;;;;17.73;7.95;;;-1.80;99.90;;;;;;5066793;28;20723;-69
2024/01/28 03:26:14;;;;;;;19.08;8.05;;;-1.80;99.90;;;;;;5067646;28;20800;-69
2024/01/28 03:28:43;;;;;;;19.00;7.75;;;-1.60;99.90;;;;;;5067256;28;20221;-68
2024/01/28 03:31:11;;;;;;;17.45;7.70;;;-1.50;99.90;;;;;;5066232;28;20224;-68
2024/01/28 03:33:40;;;;;;;21.10;8.05;;;-1.60;99.90;;;;;;5066948;28;20312;-68
2024/01/28 03:36:08;;;;;;;17.20;7.20;;;-1.70;99.90;;;;;;5067211;28;20205;-69
2024/01/28 03:38:36;;;;;;;15.00;7.72;;;-1.80;99.90;;;;;;5066599;28;20263;-69
2024/01/28 03:41:05;;;;;;;15.73;7.53;;;-1.80;99.90;;;;;;5067123;28;20232;-69
2024/01/28 03:43:33;;;;;;;16.00;6.97;;;-1.70;99.90;;;;;;5067350;28;20229;-68
2024/01/28 03:46:01;;;;;;;18.52;8.20;;;-1.80;99.90;;;;;;5058337;28;20225;-69
2024/01/28 03:48:29;;;;;;;16.25;7.50;;;-1.80;99.90;;;;;;5066165;28;20726;-68
2024/01/28 03:50:58;;;;;;;18.83;7.22;;;-1.80;99.90;;;;;;5064937;28;20243;-68
2024/01/28 03:53:26;;;;;;;18.40;9.05;;;-1.80;99.90;;;;;;5065610;28;20225;-68
2024/01/28 03:55:54;;;;;;;16.65;7.38;;;-1.70;99.90;;;;;;5065853;28;20229;-68
2024/01/28 03:58:22;;;;;;;15.23;7.32;;;-1.90;99.90;;;;;;5065501;28;20308;-69
2024/01/28 04:00:50;;;;;;;14.57;7.05;;;-1.80;99.90;;;;;;5065323;28;20240;-68
2024/01/28 04:03:18;;;;;;;18.13;8.25;;;-1.80;99.90;;;;;;5065504;28;20228;-68
2024/01/28 04:05:46;;;;;;;17.45;7.70;;;-1.80;99.90;;;;;;5065818;28;20271;-68
2024/01/28 04:08:16;;;;;;;15.50;6.75;;;-1.90;99.90;;;;;;5066036;28;20233;-69
2024/01/28 04:10:44;;;;;;;14.15;6.40;;;-1.90;99.90;;;;;;5065661;28;20231;-68
2024/01/28 04:13:12;;;;;;;15.18;5.97;;;-1.90;99.90;;;;;;5063364;28;20229;-68
2024/01/28 04:15:40;;;;;;;13.18;6.32;;;-1.80;99.90;;;;;;5064093;28;20271;-69
2024/01/28 04:18:08;;;;;;;16.00;6.43;;;-1.80;99.90;;;;;;5066043;28;20231;-69
2024/01/28 04:20:36;;;;;;;14.48;6.15;;;-2.00;99.90;;;;;;5065294;28;20563;-69
2024/01/28 04:23:04;;;;;;;16.13;6.75;;;-2.10;99.90;;;;;;5065549;28;20697;-69
2024/01/28 04:25:34;;;;;;;14.95;7.43;;;-2.20;99.90;;;;;;5060902;28;20848;-69
2024/01/28 04:28:02;;;;;;;15.77;6.93;;;-2.30;99.90;;;;;;5060933;28;20228;-68
2024/01/28 04:30:30;;;;;;;15.98;6.90;;;-2.20;99.90;;;;;;5065179;28;20623;-68
2024/01/28 04:32:58;;;;;;;17.05;7.05;;;-2.30;99.90;;;;;;5065484;28;20224;-68
2024/01/28 04:35:26;;;;;;;16.45;7.13;;;-2.20;99.90;;;;;;5065436;28;20208;-68
2024/01/28 04:37:54;;;;;;;15.18;7.15;;;-2.20;99.90;;;;;;5065348;28;20260;-69
2024/01/28 04:40:22;;;;;;;18.88;8.80;;;-2.00;99.90;;;;;;5064995;28;20233;-68
2024/01/28 04:42:51;;;;;;;14.85;6.93;;;-1.90;99.90;;;;;;5064874;28;20270;-69
2024/01/28 04:45:19;;;;;;;15.38;8.20;;;-1.90;99.90;;;;;;5065473;28;20231;-69
2024/01/28 04:47:47;;;;;;;21.40;8.25;;;-2.00;99.90;;;;;;5062655;28;20237;-67
2024/01/28 04:50:15;;;;;;;19.00;7.13;;;-2.10;99.90;;;;;;5065900;28;20200;-68
2024/01/28 04:52:43;;;;;;;21.05;8.43;;;-2.10;99.90;;;;;;5065695;28;20228;-67
2024/01/28 04:55:11;;;;;;;21.42;7.85;;;-2.20;99.90;;;;;;5065901;28;20228;-68
2024/01/28 04:57:39;;;;;;;13.68;6.63;;;-2.20;99.90;;;;;;5065736;28;20342;-68
2024/01/28 05:00:11;;;;;;;15.05;7.10;;;-2.30;99.90;;;;;;5064934;28;20236;-67
2024/01/28 05:02:39;;;;;;;14.55;7.25;;;-2.20;99.90;;;;;;5064597;28;20228;-68
2024/01/28 05:05:07;;;;;;;17.42;7.55;;;-2.10;99.90;;;;;;5065316;28;20665;-68
2024/01/28 05:07:35;;;;;;;18.13;7.50;;;-2.10;99.90;;;;;;5065267;28;20331;-68
2024/01/28 05:10:04;;;;;;;18.60;7.20;;;-2.20;99.90;;;;;;5064855;28;20213;-68
2024/01/28 05:12:32;;;;;;;19.08;7.90;;;-2.20;99.90;;;;;;5064242;28;20216;-68
2024/01/28 05:15:00;;;;;;;16.15;6.70;;;-2.20;99.90;;;;;;5065189;28;20287;-69
2024/01/28 05:17:29;;;;;;;17.30;6.40;;;-2.10;99.90;;;;;;5060205;28;21077;-68
2024/01/28 05:19:57;;;;;;;15.70;7.18;;;-2.10;99.90;;;;;;5064933;28;20229;-69
2024/01/28 05:22:25;;;;;;;13.63;6.97;;;-2.10;99.90;;;;;;5064489;28;20231;-68
2024/01/28 05:24:54;;;;;;;16.77;6.20;;;-2.00;99.90;;;;;;5064199;28;20274;-66
2024/01/28 05:27:22;;;;;;;16.05;6.07;;;-2.10;99.90;;;;;;5066107;28;20233;-68
2024/01/28 05:29:54;;;;;;;18.85;8.38;;;-2.10;99.90;;;;;;5067228;28;20222;-68
2024/01/28 05:32:22;;;;;;;22.73;8.85;;;-2.20;99.90;;;;;;5068663;28;20294;-68
2024/01/28 05:34:51;;;;;;;21.08;8.70;;;-2.30;99.90;;;;;;5068180;28;20236;-68
2024/01/28 05:37:20;;;;;;;14.90;6.63;;;-2.40;99.90;;;;;;5063130;28;20197;-68
2024/01/28 05:39:48;;;;;;;18.50;7.88;;;-2.40;99.90;;;;;;5065113;28;20232;-68
2024/01/28 05:42:16;;;;;;;16.35;7.13;;;-2.40;99.90;;;;;;5067066;28;20884;-69
2024/01/28 05:44:44;;;;;;;18.38;7.90;;;-2.30;99.90;;;;;;5068383;28;20292;-68
2024/01/28 05:47:12;;;;;;;19.50;7.90;;;-2.30;99.90;;;;;;5067229;28;20214;-68
2024/01/28 05:49:40;;;;;;;16.17;7.05;;;-2.30;99.90;;;;;;5068314;28;20721;-68
2024/01/28 05:52:09;;;;;;;15.73;6.82;;;-2.40;99.90;;;;;;5067348;28;20756;-69
2024/01/28 05:54:41;;;;;;;16.20;7.38;;;-2.30;99.90;;;;;;5062837;28;21196;-68
2024/01/28 05:57:10;;;;;;;21.08;8.23;;;-2.30;99.90;;;;;;5068107;28;20192;-68
2024/01/28 05:59:38;;;;;;;18.75;8.05;;;-2.40;99.90;;;;;;5067939;28;20235;-69
2024/01/28 06:02:06;;;;;;;20.30;8.60;;;-2.40;99.90;;;;;;5057493;28;20233;-69
2024/01/28 06:04:34;;;;;;;18.83;8.38;;;-2.50;99.90;;;;;;5068062;28;20307;-68
2024/01/28 06:07:03;;;;;;;17.73;8.50;;;-2.50;99.90;;;;;;5068038;28;20220;-68
2024/01/28 06:09:32;;;;;;;15.98;7.70;;;-2.70;99.90;;;;;;5068086;28;20682;-69
2024/01/28 06:12:00;;;;;;;16.30;6.85;;;-2.70;99.90;;;;;;5066390;28;20339;-69
2024/01/28 06:14:28;;;;;;;15.63;7.95;;;-2.70;99.90;;;;;;5068472;28;20619;-68
2024/01/28 06:16:56;;;;;;;15.93;7.00;;;-2.40;99.90;;;;;;5068212;28;20226;-68
2024/01/28 06:19:24;;;;;;;15.65;7.32;;;-2.40;99.90;;;;;;5065553;28;20494;-67
2024/01/28 06:21:53;;;;;;;13.15;7.00;;;-2.30;99.90;;;;;;5066592;28;20228;-68
2024/01/28 06:24:21;;;;;;;16.08;7.53;;;-2.30;99.90;;;;;;5063129;28;20421;-68
2024/01/28 06:26:50;;;;;;;18.33;9.45;;;-2.40;99.90;;;;;;5067265;28;20606;-68
2024/01/28 06:29:22;;;;;;;16.55;7.40;;;-2.60;99.90;;;;;;5068547;28;20231;-68
2024/01/28 06:31:50;;;;;;;17.92;8.35;;;-2.70;99.90;;;;;;5067166;28;20270;-68
2024/01/28 06:34:18;;;;;;;15.10;6.68;;;-2.60;99.90;;;;;;5063202;28;20591;-68
2024/01/28 06:36:46;;;;;;;14.65;6.82;;;-2.60;99.90;;;;;;5068714;28;20240;-68
2024/01/28 06:39:14;;;;;;;13.00;6.82;;;-2.60;99.90;;;;;;5068533;28;20236;-68
2024/01/28 06:41:43;;;;;;;16.95;7.20;;;-2.70;99.90;;;;;;5067426;28;20220;-68
2024/01/28 06:44:13;;;;;;;18.63;7.55;;;-2.40;99.90;;;;;;5068252;28;20232;-67
2024/01/28 06:46:41;;;;;;;18.38;7.63;;;-2.40;99.90;;;;;;5068169;28;20228;-69
2024/01/28 06:49:08;;;;;;;16.80;7.60;;;-2.50;99.90;;;;;;5068384;28;20738;-68
2024/01/28 06:51:41;;;;;;;18.60;7.50;;;-2.50;99.90;;;;;;5066923;28;20584;-68
2024/01/28 06:54:10;;;;;;;17.75;7.32;;;-2.50;99.90;;;;;;5060455;28;20232;-69
2024/01/28 06:56:38;;;;;;;17.55;7.80;;;-2.50;99.90;;;;;;5067725;28;20701;-68
2024/01/28 06:59:07;;;;;;;13.55;6.65;;;-2.50;99.90;;;;;;5067729;28;20224;-68
2024/01/28 07:01:37;;;;;;;19.45;7.07;;;-2.60;99.90;;;;;;5065661;28;20243;-68
2024/01/28 07:04:05;;;;;;;14.20;7.57;;;-2.50;99.90;;;;;;5066880;28;20228;-68
2024/01/28 07:06:33;;;;;;;15.35;6.70;;;-2.60;99.90;;;;;;5066791;28;20223;-67
2024/01/28 07:09:01;;;;;;;12.45;6.32;;;-2.50;99.90;;;;;;5066805;28;20235;-68
2024/01/28 07:11:29;;;;;;;11.90;6.28;;;-2.40;99.90;;;;;;5065751;28;20300;-68
2024/01/28 07:13:57;;;;;;;15.75;7.45;;;-2.40;99.90;;;;;;5066713;28;20957;-68
2024/01/28 07:16:25;;;;;;;19.65;7.88;;;-2.20;99.90;;;;;;5066828;28;20217;-68
2024/01/28 07:18:55;;;;;;;14.80;7.38;;;-2.30;99.90;;;;;;5066983;28;20307;-68
2024/01/28 07:21:23;;;;;;;17.90;7.22;;;-2.30;99.90;;;;;;5065578;28;20223;-68
2024/01/28 07:23:51;;;;;;;15.85;6.65;;;-2.20;99.90;;;;;;5066474;28;20324;-68
2024/01/28 07:26:19;;;;;;;16.58;6.93;;;-2.10;99.90;;;;;;5065963;28;20220;-68
2024/01/28 07:28:46;;;;;;;16.65;8.00;;;-2.00;99.90;;;;;;5065221;28;20225;-68
2024/01/28 07:31:15;;;;;;;15.48;6.50;;;-1.90;99.90;;;;;;5065947;28;20220;-68
2024/01/28 07:33:43;;;;;;;18.27;6.97;;;-2.00;99.90;;;;;;5065841;28;20231;-69
2024/01/28 07:36:15;;;;;;;14.10;7.43;;;-2.00;99.90;;;;;;5065221;28;20652;-68
2024/01/28 07:38:43;;;;;;;14.15;7.03;;;-1.90;99.90;;;;;;5064547;28;20212;-68
2024/01/28 07:41:14;;;;;;;17.33;7.40;;;-1.80;99.90;;;;;;5064600;28;20277;-68
2024/01/28 07:43:42;;;;;;;20.60;10.85;;;-1.80;99.90;;;;;;5066012;28;20224;-68
2024/01/28 07:46:11;;;;;;;23.30;11.77;;;-1.80;99.90;;;;;;5066076;28;20610;-68
2024/01/28 07:48:39;;;;;;;21.95;10.40;;;-1.80;99.90;;;;;;5065987;28;20591;-68
2024/01/28 07:51:07;;;;;;;21.02;9.43;;;-1.80;99.90;;;;;;5064452;28;20270;-68
2024/01/28 07:53:36;;;;;;;18.13;8.60;;;-1.70;99.90;;;;;;5063868;28;20687;-68
2024/01/28 07:56:05;;;;;;;17.52;9.45;;;-1.70;99.90;;;;;;5066130;28;20356;-68
2024/01/28 07:58:33;;;;;;;16.45;9.25;;;-1.60;99.90;;;;;;5066195;28;20582;-68
2024/01/28 08:01:01;;;;;;;22.40;10.52;;;-1.50;99.90;;;;;;5060885;28;20334;-68
2024/01/28 08:03:29;;;;;;;21.98;12.32;;;-1.40;99.90;;;;;;5066656;28;20215;-68
2024/01/28 08:05:57;;;;;;;25.42;14.35;;;-1.20;99.90;;;;;;5065776;28;20220;-68
2024/01/28 08:08:25;;;;;;;31.52;16.30;;;-1.10;99.90;;;;;;5066095;28;20229;-65
2024/01/28 08:10:54;;;;;;;28.73;15.77;;;-0.90;99.90;;;;;;5062821;28;20294;-68
2024/01/28 08:13:22;;;;;;;30.17;17.60;;;-0.80;99.90;;;;;;5065532;28;20674;-69
2024/01/28 08:15:51;;;;;;;29.50;14.90;;;-0.60;99.90;;;;;;5065676;28;20208;-68
2024/01/28 08:18:19;;;;;;;28.88;16.55;;;-0.50;99.90;;;;;;5065798;28;20291;-69
2024/01/28 08:20:47;;;;;;;30.63;16.60;;;-0.40;99.90;;;;;;5065250;28;20448;-68
2024/01/28 08:23:15;;;;;;;34.70;18.00;;;-0.30;99.90;;;;;;5065485;28;20207;-69
2024/01/28 08:25:44;;;;;;;34.45;19.48;;;-0.20;99.90;;;;;;5065061;28;20260;-68
2024/01/28 08:28:14;;;;;;;32.35;18.40;;;-0.10;99.90;;;;;;5064294;28;20765;-69
2024/01/28 08:30:42;;;;;;;37.58;19.63;;;0.10;99.90;;;;;;5064156;28;20563;-69
2024/01/28 08:33:10;;;;;;;27.40;17.67;;;0.20;99.90;;;;;;5065920;28;20229;-69
2024/01/28 08:35:38;;;;;;;31.67;17.38;;;0.40;99.90;;;;;;5066398;28;20608;-68
2024/01/28 08:38:09;;;;;;;26.98;17.58;;;0.50;99.90;;;;;;5065614;28;20228;-69
2024/01/28 08:40:38;;;;;;;34.17;16.48;;;0.60;99.90;;;;;;5065571;28;20227;-69
2024/01/28 08:43:07;;;;;;;25.83;15.90;;;0.80;99.90;;;;;;5061357;28;20779;-68
2024/01/28 08:45:37;;;;;;;28.08;15.82;;;0.90;99.90;;;;;;5065880;28;20223;-69
2024/01/28 08:48:05;;;;;;;29.33;15.50;;;1.10;99.90;;;;;;5065339;28;20235;-68
2024/01/28 08:50:33;;;;;;;30.17;15.67;;;1.30;99.90;;;;;;5064042;28;20241;-69
2024/01/28 08:53:01;;;;;;;27.30;15.15;;;1.30;99.90;;;;;;5064178;28;20474;-67
2024/01/28 08:55:29;;;;;;;30.83;16.47;;;1.50;99.90;;;;;;5064652;28;20757;-69
2024/01/28 08:57:57;;;;;;;29.30;15.77;;;1.70;99.90;;;;;;5065168;28;20477;-68
2024/01/28 09:00:25;;;;;;;30.30;15.20;;;1.90;99.90;;;;;;5064459;28;20443;-68
2024/01/28 09:02:55;;;;;;;26.83;15.63;;;2.00;99.90;;;;;;5065438;28;20570;-68
2024/01/28 09:05:23;;;;;;;29.33;16.53;;;2.20;99.90;;;;;;5069320;28;21159;-69
2024/01/28 09:07:51;;;;;;;23.13;14.93;;;2.40;99.90;;;;;;5069176;28;20464;-70
2024/01/28 09:10:19;;;;;;;28.20;16.27;;;2.50;99.90;;;;;;5068257;28;20443;-69
2024/01/28 09:12:47;;;;;;;24.60;14.97;;;2.60;99.90;;;;;;5068686;28;20474;-69
2024/01/28 09:15:15;;;;;;;24.07;13.43;;;2.70;99.90;;;;;;5067874;28;20451;-70
2024/01/28 09:17:43;;;;;;;25.80;14.20;;;2.90;99.90;;;;;;5069934;28;20466;-70
2024/01/28 09:20:13;;;;;;;25.50;14.27;;;3.10;99.90;;;;;;5069390;28;20537;-68
2024/01/28 09:22:41;;;;;;;21.53;13.03;;;3.30;99.90;;;;;;5068257;28;20482;-70
2024/01/28 09:25:10;;;;;;;23.17;12.87;;;3.40;99.90;;;;;;5068110;28;20458;-65
2024/01/28 09:27:38;;;;;;;23.83;13.10;;;3.60;99.90;;;;;;5067693;28;20456;-69
2024/01/28 09:30:07;;;;;;;27.17;12.60;;;3.80;99.90;;;;;;5068240;28;20854;-69
2024/01/28 09:32:35;;;;;;;19.70;11.83;;;3.90;99.90;;;;;;5067617;28;20437;-69
2024/01/28 09:35:04;;;;;;;18.20;11.17;;;4.00;99.90;;;;;;5068333;28;20445;-69
2024/01/28 09:37:33;;;;;;;19.40;10.70;;;4.20;99.90;;;;;;5068208;28;20559;-69
2024/01/28 09:40:02;;;;;;;20.40;11.10;;;4.40;99.90;;;;;;5068435;28;20509;-69
2024/01/28 09:42:38;;;;;;;17.40;11.77;;;4.70;99.90;;;;;;5067637;28;20495;-68
2024/01/28 09:45:09;;;;;;;20.87;11.17;;;5.00;99.90;;;;;;5065815;28;20487;-68
2024/01/28 09:47:38;;;;;;;20.27;10.10;;;5.20;99.90;;;;;;5069309;28;20541;-68
2024/01/28 09:50:09;;;;;;;17.20;9.63;;;5.60;99.90;;;;;;5068187;28;20475;-66
2024/01/28 09:52:38;;;;;;;16.13;9.00;;;5.60;99.90;;;;;;5068356;28;20461;-67
2024/01/28 09:55:07;;;;;;;16.93;9.87;;;5.90;99.90;;;;;;5069224;28;20477;-68
2024/01/28 09:57:35;;;;;;;19.17;10.63;;;6.40;99.90;;;;;;5069105;28;20556;-67
2024/01/28 10:00:07;;;;;;;17.33;8.90;;;6.80;99.90;;;;;;5068669;28;20480;-67
2024/01/28 10:02:36;;;;;;;16.20;10.03;;;7.30;99.90;;;;;;5067816;28;20564;-69
2024/01/28 10:05:10;;;;;;;17.43;9.23;;;7.60;99.90;;;;;;5069036;28;20506;-69
2024/01/28 10:07:44;;;;;;;16.90;9.33;;;7.70;99.90;;;;;;5068550;28;20467;-68
2024/01/28 10:10:13;;;;;;;14.73;8.83;;;8.00;99.90;;;;;;5065767;28;20454;-67
2024/01/28 10:12:41;;;;;;;17.07;9.93;;;8.40;99.90;;;;;;5068188;28;20469;-68
2024/01/28 10:15:16;;;;;;;14.97;9.07;;;8.60;99.90;;;;;;5067665;28;20547;-67
2024/01/28 10:17:47;;;;;;;17.33;8.97;;;8.90;99.90;;;;;;5068394;28;20462;-69
2024/01/28 10:20:16;;;;;;;15.87;9.33;;;9.30;99.90;;;;;;5061365;28;21335;-69
2024/01/28 10:22:46;;;;;;;15.80;9.80;;;9.60;98.70;;;;;;5065475;28;20576;-71
2024/01/28 10:25:16;;;;;;;15.50;9.73;;;9.90;97.10;;;;;;5064503;28;20548;-68
2024/01/28 10:27:44;;;;;;;16.70;9.20;;;10.20;94.50;;;;;;5067066;28;20511;-68
2024/01/28 10:30:14;;;;;;;14.70;9.23;;;10.30;94.80;;;;;;5066380;28;20438;-67
2024/01/28 10:32:43;;;;;;;15.47;8.63;;;10.60;92.90;;;;;;5064670;28;20450;-68
2024/01/28 10:35:13;;;;;;;15.37;9.73;;;10.90;92.30;;;;;;5067236;28;20524;-68
2024/01/28 10:37:41;;;;;;;17.10;9.50;;;11.20;90.50;;;;;;5066189;28;20560;-69
2024/01/28 10:40:12;;;;;;;15.50;9.03;;;11.80;84.60;;;;;;5066671;28;20439;-69
2024/01/28 10:42:41;;;;;;;15.10;8.80;;;12.00;83.40;;;;;;5063243;28;20589;-68
2024/01/28 10:45:11;;;;;;;15.80;9.33;;;12.30;79.50;;;;;;5065158;28;20865;-68
2024/01/28 10:47:45;;;;;;;14.37;8.63;;;11.90;79.60;;;;;;5064481;28;20520;-68
2024/01/28 10:50:15;;;;;;;13.13;7.73;;;11.90;81.70;;;;;;5063099;28;20435;-67
2024/01/28 10:52:45;;;;;;;13.63;9.37;;;12.30;82.90;;;;;;5064938;28;20432;-68
2024/01/28 10:55:15;;;;;;;14.87;8.43;;;12.90;78.30;;;;;;5066702;28;20439;-67
2024/01/28 10:57:43;;;;;;;17.23;9.37;;;13.30;73.80;;;;;;5065134;28;21138;-67
2024/01/28 11:00:13;;;;;;;12.57;7.93;;;13.50;73.10;;;;;;5064369;28;20454;-68
2024/01/28 11:02:42;;;;;;;15.13;8.70;;;13.30;74.60;;;;;;5060155;28;20483;-68
2024/01/28 11:05:12;;;;;;;13.57;8.00;;;13.10;73.50;;;;;;5061589;28;20879;-67
2024/01/28 11:07:41;;;;;;;14.40;8.00;;;13.10;74.80;;;;;;5061630;28;20456;-69
2024/01/28 11:10:14;;;;;;;15.80;8.90;;;13.00;72.00;;;;;;5058975;28;20815;-66
2024/01/28 11:12:42;;;;;;;13.37;7.43;;;12.50;74.10;;;;;;5061220;28;20547;-68
2024/01/28 11:15:13;;;;;;;13.73;8.27;;;12.40;76.20;;;;;;5064485;28;20444;-68
2024/01/28 11:17:41;;;;;;;15.03;7.80;;;11.90;76.40;;;;;;5063142;28;20459;-73
2024/01/28 11:20:11;;;;;;;12.97;6.63;;;11.30;79.70;;;;;;5064201;28;20481;-68
2024/01/28 11:22:48;;;;;;;12.80;7.30;;;10.80;81.30;;;;;;5063125;28;20489;-68
2024/01/28 11:25:21;;;;;;;15.00;8.53;;;10.50;82.30;;;;;;5061754;28;20553;-68
2024/01/28 11:27:51;;;;;;;14.13;7.73;;;10.10;82.80;;;;;;5056638;28;20564;-67
2024/01/28 11:30:22;;;;;;;13.30;6.83;;;9.80;85.50;;;;;;5058676;28;21094;-67
2024/01/28 11:32:52;;;;;;;13.90;7.40;;;9.50;86.10;;;;;;5062715;28;20522;-67
2024/01/28 11:35:21;;;;;;;13.00;8.43;;;9.30;86.80;;;;;;5062136;28;20454;-67
2024/01/28 11:37:54;;;;;;;13.70;7.60;;;9.10;87.30;;;;;;5062854;28;21235;-67
2024/01/28 11:40:30;;;;;;;14.40;8.07;;;9.00;88.70;;;;;;5062552;28;20442;-68
2024/01/28 11:42:59;;;;;;;14.07;7.43;;;9.10;88.60;;;;;;5062023;28;20481;-67
2024/01/28 11:45:29;;;;;;;15.63;8.40;;;9.20;88.20;;;;;;5060830;28;20562;-67
2024/01/28 11:47:57;;;;;;;14.30;6.90;;;9.10;88.60;;;;;;5059451;28;20482;-68
2024/01/28 11:50:25;;;;;;;13.33;7.50;;;9.10;87.50;;;;;;5063345;28;20530;-67
2024/01/28 11:52:53;;;;;;;12.50;7.00;;;9.00;88.90;;;;;;5061238;28;20441;-69
2024/01/28 11:55:21;;;;;;;13.77;7.27;;;9.00;88.00;;;;;;5063179;28;20445;-68
2024/01/28 11:57:51;;;;;;;13.67;6.90;;;8.90;88.30;;;;;;5062970;28;21067;-68
2024/01/28 12:00:20;;;;;;;14.00;6.80;;;8.80;88.40;;;;;;5062478;28;20819;-69
2024/01/28 12:02:49;;;;;;;13.00;5.93;;;8.70;87.70;;;;;;5062984;28;20514;-68
2024/01/28 12:05:17;;;;;;;12.83;5.90;;;8.70;87.10;;;;;;5064091;28;20471;-74
2024/01/28 12:07:47;;;;;;;12.73;6.47;;;8.80;88.40;;;;;;5065270;28;21063;-69
2024/01/28 12:10:15;;;;;;;11.97;6.03;;;8.80;88.10;;;;;;5063922;28;21116;-69
2024/01/28 12:12:43;;;;;;;13.43;6.80;;;8.90;87.70;;;;;;5062850;28;20461;-73
2024/01/28 12:15:13;;;;;;;14.80;6.00;;;8.90;87.70;;;;;;5062089;28;20448;-68
2024/01/28 12:17:43;;;;;;;12.37;6.13;;;8.90;87.50;;;;;;5062025;28;21110;-69
2024/01/28 12:20:21;;;;;;;13.17;5.03;;;8.90;86.20;;;;;;5061702;28;20427;-69
2024/01/28 12:22:50;;;;;;;13.10;6.40;;;8.90;87.50;;;;;;5062098;28;20481;-71
2024/01/28 12:25:21;;;;;;;13.20;6.13;;;8.80;87.40;;;;;;5064446;28;20818;-70
2024/01/28 12:27:51;;;;;;;11.80;6.00;;;9.00;86.30;;;;;;5062840;28;20459;-70
2024/01/28 12:30:21;;;;;;;13.10;6.03;;;9.10;87.80;;;;;;5061589;28;20530;-70
2024/01/28 12:32:50;;;;;;;13.73;5.97;;;9.10;86.60;;;;;;5060750;28;20454;-71
2024/01/28 12:35:18;;;;;;;12.77;6.03;;;9.30;85.90;;;;;;5062135;28;20485;-69
2024/01/28 12:37:46;;;;;;;11.77;5.13;;;9.40;85.10;;;;;;5062258;28;20552;-69
2024/01/28 12:40:15;;;;;;;11.20;5.60;;;9.40;85.30;;;;;;5066659;28;21161;-70
2024/01/28 12:42:43;;;;;;;11.50;5.80;;;9.30;85.70;;;;;;5067669;28;20452;-70